Time;durP1;ratioP1;P1;durP2;ratioP2;P2;SDS_P1;SDS_P2;PMS_P1;PMS_P2;Temp;Humidity;BMP_temperature;BMP_pressure;BME280_temperature;BME280_humidity;BME280_pressure;Samples;Min_cycle;Max_cycle;Signal;HPM_P1;HPM_P2
2022/11/24 00:00:51;;;;;;;;;;;;;;;;;;5071940;28;1332;-74
2022/11/24 00:03:19;;;;;;;;;;;;;;;;;;5069455;28;1095;-74
2022/11/24 00:05:45;;;;;;;;;;;;;;;;;;5071436;28;1063;-74
2022/11/24 00:08:11;;;;;;;;;;;;;;;;;;5071149;28;1403;-73
2022/11/24 00:10:37;;;;;;;;;;;;;;;;;;5071694;28;781;-73
2022/11/24 00:13:04;;;;;;;;;;;;;;;;;;5074355;28;1907;-74
2022/11/24 00:15:30;;;;;;;;;;;;;;;;;;5074906;28;980;-74
2022/11/24 00:17:56;;;;;;;;;;;;;;;;;;5075033;28;1317;-71
2022/11/24 00:20:24;;;;;;;;;;;;;;;;;;5075005;28;1098;-74
2022/11/24 00:22:50;;;;;;;;;;;;;;;;;;5074125;28;821;-72
2022/11/24 00:25:16;;;;;;;;;;;;;;;;;;5073279;28;1268;-73
2022/11/24 00:27:43;;;;;;;;;;;;;;;;;;5074999;28;767;-73
2022/11/24 00:30:09;;;;;;;;;;;;;;;;;;5074919;28;1337;-72
2022/11/24 00:32:36;;;;;;;;;;;;;;;;;;5074090;28;1976;-73
2022/11/24 00:35:02;;;;;;;;;;;;;;;;;;5074848;28;798;-74
2022/11/24 00:37:30;;;;;;;;;;;;;;;;;;5073680;28;1268;-75
2022/11/24 00:39:56;;;;;;;;;;;;;;;;;;5074073;28;1427;-74
2022/11/24 00:42:22;;;;;;;;;;;;;;;;;;5073564;28;1482;-73
2022/11/24 00:44:48;;;;;;;;;;;;;;;;;;5074909;28;742;-74
2022/11/24 00:47:15;;;;;;;;;;;;;;;;;;5074514;28;1078;-74
2022/11/24 00:49:41;;;;;;;;;;;;;;;;;;5074236;28;1292;-73
2022/11/24 00:52:07;;;;;;;;;;;;;;;;;;5073649;28;1910;-73
2022/11/24 00:54:34;;;;;;;;;;;;;;;;;;5074332;28;1032;-74
2022/11/24 00:57:01;;;;;;;;;;;;;;;;;;5074264;28;1107;-74
2022/11/24 00:59:27;;;;;;;;;;;;;;;;;;5075067;28;1286;-74
2022/11/24 01:01:54;;;;;;;;;;;;;;;;;;5076374;28;937;-74
2022/11/24 01:04:20;;;;;;;;;;;;;;;;;;5078616;28;861;-74
2022/11/24 01:06:46;;;;;;;;;;;;;;;;;;5073177;28;1207;-75
2022/11/24 01:09:13;;;;;;;;;;;;;;;;;;5072638;28;1250;-74
2022/11/24 01:14:24;;;;;;;;;;;;;;;;;;5073545;28;1968;-74
2022/11/24 01:16:51;;;;;;;;;;;;;;;;;;5073669;28;1075;-74
2022/11/24 01:19:17;;;;;;;;;;;;;;;;;;5073360;28;1275;-74
2022/11/24 01:21:43;;;;;;;;;;;;;;;;;;5072709;28;1115;-74
2022/11/24 01:24:10;;;;;;;;;;;;;;;;;;5073673;28;1100;-74
2022/11/24 01:26:36;;;;;;;;;;;;;;;;;;5073832;28;1047;-74
2022/11/24 01:29:03;;;;;;;;;;;;;;;;;;5073727;28;1262;-74
2022/11/24 01:31:29;;;;;;;;;;;;;;;;;;5072967;28;1123;-74
2022/11/24 01:33:56;;;;;;;;;;;;;;;;;;5073387;28;1914;-74
2022/11/24 01:36:22;;;;;;;;;;;;;;;;;;5072319;28;1077;-74
2022/11/24 01:38:48;;;;;;;;;;;;;;;;;;5072406;28;1376;-74
2022/11/24 01:41:16;;;;;;;;;;;;;;;;;;5072006;28;1196;-74
2022/11/24 01:43:42;;;;;;;;;;;;;;;;;;5071978;28;1517;-74
2022/11/24 01:46:13;;;;;;;;;;;;;;;;;;5073742;28;1114;-73
2022/11/24 01:48:41;;;;;;;;;;;;;;;;;;5073432;28;1374;-73
2022/11/24 01:51:08;;;;;;;;;;;;;;;;;;5073130;28;881;-73
2022/11/24 01:53:34;;;;;;;;;;;;;;;;;;5071361;28;1914;-74
2022/11/24 01:56:00;;;;;;;;;;;;;;;;;;5073071;28;867;-73
2022/11/24 01:58:27;;;;;;;;;;;;;;;;;;5073130;28;1380;-73
2022/11/24 02:00:53;;;;;;;;;;;;;;;;;;5071788;28;1288;-73
2022/11/24 02:03:22;;;;;;;;;;;;;;;;;;5070806;28;1298;-73
2022/11/24 02:05:49;;;;;;;;;;;;;;;;;;5072817;28;861;-72
2022/11/24 02:08:21;;;;;;;;;;;;;;;;;;5071349;28;1355;-74
2022/11/24 02:10:47;;;;;;;;;;;;;;;;;;5073008;28;1063;-74
2022/11/24 02:13:14;;;;;;;;;;;;;;;;;;5070571;28;1967;-73
2022/11/24 02:15:40;;;;;;;;;;;;;;;;;;5072935;28;1130;-74
2022/11/24 02:18:06;;;;;;;;;;;;;;;;;;5071243;28;1308;-74
2022/11/24 02:20:34;;;;;;;;;;;;;;;;;;5071525;28;1264;-73
2022/11/24 02:23:01;;;;;;;;;;;;;;;;;;5071781;28;1036;-74
2022/11/24 02:25:29;;;;;;;;;;;;;;;;;;5070895;28;1412;-74
2022/11/24 02:27:57;;;;;;;;;;;;;;;;;;5072617;28;1293;-72
2022/11/24 02:30:23;;;;;;;;;;;;;;;;;;5071383;28;1106;-74
2022/11/24 02:32:49;;;;;;;;;;;;;;;;;;5070526;28;1906;-74
2022/11/24 02:35:16;;;;;;;;;;;;;;;;;;5070205;28;1550;-73
2022/11/24 02:37:42;;;;;;;;;;;;;;;;;;5071290;28;1123;-74
2022/11/24 02:40:09;;;;;;;;;;;;;;;;;;5072273;28;1370;-73
2022/11/24 02:42:36;;;;;;;;;;;;;;;;;;5071653;28;862;-74
2022/11/24 02:45:03;;;;;;;;;;;;;;;;;;5071897;28;787;-74
2022/11/24 02:47:30;;;;;;;;;;;;;;;;;;5072249;28;1575;-74
2022/11/24 02:49:56;;;;;;;;;;;;;;;;;;5072082;28;1377;-74
2022/11/24 02:52:22;;;;;;;;;;;;;;;;;;5071400;28;1044;-74
2022/11/24 02:54:48;;;;;;;;;;;;;;;;;;5072094;28;1975;-73
2022/11/24 02:57:15;;;;;;;;;;;;;;;;;;5070874;28;1088;-74
2022/11/24 02:59:41;;;;;;;;;;;;;;;;;;5070883;28;1301;-74
2022/11/24 03:02:09;;;;;;;;;;;;;;;;;;5069822;28;1124;-73
2022/11/24 03:04:35;;;;;;;;;;;;;;;;;;5071947;28;1119;-72
2022/11/24 03:07:01;;;;;;;;;;;;;;;;;;5072135;28;925;-73
2022/11/24 03:09:28;;;;;;;;;;;;;;;;;;5071879;28;1321;-74
2022/11/24 03:11:54;;;;;;;;;;;;;;;;;;5071226;28;1052;-73
2022/11/24 03:14:20;;;;;;;;;;;;;;;;;;5070486;28;1973;-74
2022/11/24 03:16:46;;;;;;;;;;;;;;;;;;5071928;28;865;-72
2022/11/24 03:19:14;;;;;;;;;;;;;;;;;;5071524;28;1321;-73
2022/11/24 03:21:40;;;;;;;;;;;;;;;;;;5069915;28;1477;-74
2022/11/24 03:24:06;;;;;;;;;;;;;;;;;;5070444;28;1237;-73
2022/11/24 03:26:33;;;;;;;;;;;;;;;;;;5071980;28;1107;-73
2022/11/24 03:29:01;;;;;;;;;;;;;;;;;;5071980;28;1375;-70
2022/11/24 03:31:27;;;;;;;;;;;;;;;;;;5071109;28;1063;-74
2022/11/24 03:33:53;;;;;;;;;;;;;;;;;;5071868;28;1910;-74
2022/11/24 03:36:20;;;;;;;;;;;;;;;;;;5071618;28;825;-74
2022/11/24 03:38:47;;;;;;;;;;;;;;;;;;5071958;28;1329;-74
2022/11/24 03:41:13;;;;;;;;;;;;;;;;;;5071477;28;893;-72
2022/11/24 03:43:39;;;;;;;;;;;;;;;;;;5071075;28;932;-74
2022/11/24 03:46:05;;;;;;;;;;;;;;;;;;5074154;28;1129;-73
2022/11/24 03:48:31;;;;;;;;;;;;;;;;;;5075469;28;1372;-74
2022/11/24 03:50:58;;;;;;;;;;;;;;;;;;5075597;28;1134;-74
2022/11/24 03:53:27;;;;;;;;;;;;;;;;;;5074483;28;1950;-71
2022/11/24 03:55:53;;;;;;;;;;;;;;;;;;5074217;28;1274;-74
2022/11/24 03:58:20;;;;;;;;;;;;;;;;;;5074153;28;1393;-74
2022/11/24 04:00:46;;;;;;;;;;;;;;;;;;5075461;28;1126;-73
2022/11/24 04:03:12;;;;;;;;;;;;;;;;;;5074737;28;1453;-74
2022/11/24 04:05:38;;;;;;;;;;;;;;;;;;5075371;28;1071;-74
2022/11/24 04:08:05;;;;;;;;;;;;;;;;;;5075173;28;1307;-73
2022/11/24 04:10:35;;;;;;;;;;;;;;;;;;5082497;28;984;-74
2022/11/24 04:13:01;;;;;;;;;;;;;;;;;;5083802;28;1910;-73
2022/11/24 04:15:27;;;;;;;;;;;;;;;;;;5081627;28;1123;-74
2022/11/24 04:17:54;;;;;;;;;;;;;;;;;;5075130;28;1358;-71
2022/11/24 04:20:20;;;;;;;;;;;;;;;;;;5075022;28;1079;-74
2022/11/24 04:22:46;;;;;;;;;;;;;;;;;;5074197;28;1064;-74
2022/11/24 04:25:16;;;;;;;;;;;;;;;;;;5073562;28;1465;-74
2022/11/24 04:27:43;;;;;;;;;;;;;;;;;;5060470;28;1454;-74
2022/11/24 04:30:10;;;;;;;;;;;;;;;;;;5071668;28;1419;-74
2022/11/24 04:32:36;;;;;;;;;;;;;;;;;;5073275;28;1425;-74
2022/11/24 04:35:02;;;;;;;;;;;;;;;;;;5069771;28;1973;-74
2022/11/24 04:37:28;;;;;;;;;;;;;;;;;;5063235;28;1591;-73
2022/11/24 04:39:55;;;;;;;;;;;;;;;;;;5072601;28;1412;-74
2022/11/24 04:42:21;;;;;;;;;;;;;;;;;;5069092;28;1525;-74
2022/11/24 04:44:49;;;;;;;;;;;;;;;;;;5066795;28;1469;-74
2022/11/24 04:47:15;;;;;;;;;;;;;;;;;;5065787;28;1164;-73
2022/11/24 04:49:41;;;;;;;;;;;;;;;;;;5074549;28;1332;-73
2022/11/24 04:52:08;;;;;;;;;;;;;;;;;;5071676;28;1410;-75
2022/11/24 04:54:34;;;;;;;;;;;;;;;;;;5071965;28;1917;-75
2022/11/24 04:57:00;;;;;;;;;;;;;;;;;;5073727;28;1177;-75
2022/11/24 04:59:26;;;;;;;;;;;;;;;;;;5072809;28;1320;-76
2022/11/24 05:01:54;;;;;;;;;;;;;;;;;;5064546;28;1422;-76
2022/11/24 05:04:20;;;;;;;;;;;;;;;;;;5065411;28;1150;-74
2022/11/24 05:06:46;;;;;;;;;;;;;;;;;;5074373;28;1048;-74
2022/11/24 05:09:13;;;;;;;;;;;;;;;;;;5071241;28;1438;-74
2022/11/24 05:11:39;;;;;;;;;;;;;;;;;;5071171;28;1580;-75
2022/11/24 05:14:06;;;;;;;;;;;;;;;;;;5073796;28;1975;-74
2022/11/24 05:16:32;;;;;;;;;;;;;;;;;;5071926;28;1421;-76
2022/11/24 05:18:59;;;;;;;;;;;;;;;;;;5073794;28;1396;-76
2022/11/24 05:21:27;;;;;;;;;;;;;;;;;;5070949;28;1486;-73
2022/11/24 05:23:53;;;;;;;;;;;;;;;;;;5061656;28;1785;-73
2022/11/24 05:26:19;;;;;;;;;;;;;;;;;;5073472;28;1181;-74
2022/11/24 05:28:45;;;;;;;;;;;;;;;;;;5072744;28;1417;-72
2022/11/24 05:31:12;;;;;;;;;;;;;;;;;;5073425;28;1122;-71
2022/11/24 05:33:38;;;;;;;;;;;;;;;;;;5071407;28;1979;-74
2022/11/24 05:36:06;;;;;;;;;;;;;;;;;;5073693;28;1076;-74
2022/11/24 05:38:33;;;;;;;;;;;;;;;;;;5073511;28;1293;-74
2022/11/24 05:41:00;;;;;;;;;;;;;;;;;;5072226;28;1493;-74
2022/11/24 05:43:26;;;;;;;;;;;;;;;;;;5070611;28;1284;-75
2022/11/24 05:45:52;;;;;;;;;;;;;;;;;;5073578;28;1107;-74
2022/11/24 05:48:18;;;;;;;;;;;;;;;;;;5071431;28;1304;-75
2022/11/24 05:50:45;;;;;;;;;;;;;;;;;;5072098;28;1317;-71
2022/11/24 05:53:12;;;;;;;;;;;;;;;;;;5073312;28;1091;-74
2022/11/24 05:55:39;;;;;;;;;;;;;;;;;;5072919;28;1914;-75
2022/11/24 05:58:06;;;;;;;;;;;;;;;;;;5071632;28;1277;-74
2022/11/24 06:00:32;;;;;;;;;;;;;;;;;;5072423;28;1111;-74
2022/11/24 06:02:59;;;;;;;;;;;;;;;;;;5071456;28;1348;-73
2022/11/24 06:05:25;;;;;;;;;;;;;;;;;;5072614;28;1321;-75
2022/11/24 06:07:52;;;;;;;;;;;;;;;;;;5072298;28;1302;-75
2022/11/24 06:10:19;;;;;;;;;;;;;;;;;;5070178;28;1463;-75
2022/11/24 06:12:46;;;;;;;;;;;;;;;;;;5070414;28;1451;-73
2022/11/24 06:15:12;;;;;;;;;;;;;;;;;;5072590;28;1968;-76
2022/11/24 06:17:39;;;;;;;;;;;;;;;;;;5072887;28;1074;-75
2022/11/24 06:20:06;;;;;;;;;;;;;;;;;;5072471;28;1365;-74
2022/11/24 06:22:32;;;;;;;;;;;;;;;;;;5072155;28;1062;-75
2022/11/24 06:24:58;;;;;;;;;;;;;;;;;;5072647;28;924;-74
2022/11/24 06:27:26;;;;;;;;;;;;;;;;;;5072369;28;1222;-74
2022/11/24 06:29:52;;;;;;;;;;;;;;;;;;5071372;28;1363;-74
2022/11/24 06:32:18;;;;;;;;;;;;;;;;;;5071519;28;1155;-74
2022/11/24 06:34:45;;;;;;;;;;;;;;;;;;5071810;28;1906;-72
2022/11/24 06:37:11;;;;;;;;;;;;;;;;;;5070820;28;1131;-72
2022/11/24 06:39:37;;;;;;;;;;;;;;;;;;5072389;28;1397;-74
2022/11/24 06:42:03;;;;;;;;;;;;;;;;;;5071646;28;924;-73
2022/11/24 06:44:31;;;;;;;;;;;;;;;;;;5072160;28;1032;-73
2022/11/24 06:46:57;;;;;;;;;;;;;;;;;;5072373;28;929;-71
2022/11/24 06:49:23;;;;;;;;;;;;;;;;;;5071911;28;1418;-74
2022/11/24 06:51:49;;;;;;;;;;;;;;;;;;5071558;28;1388;-74
2022/11/24 06:54:16;;;;;;;;;;;;;;;;;;5069662;28;1913;-74
2022/11/24 06:56:43;;;;;;;;;;;;;;;;;;5071877;28;1274;-75
2022/11/24 06:59:13;;;;;;;;;;;;;;;;;;5071469;28;1368;-74
2022/11/24 07:01:40;;;;;;;;;;;;;;;;;;5069603;28;1289;-75
2022/11/24 07:04:06;;;;;;;;;;;;;;;;;;5071495;28;1388;-74
2022/11/24 07:06:33;;;;;;;;;;;;;;;;;;5070747;28;1203;-74
2022/11/24 07:08:59;;;;;;;;;;;;;;;;;;5072289;28;1391;-74
2022/11/24 07:11:25;;;;;;;;;;;;;;;;;;5069800;28;1254;-74
2022/11/24 07:13:52;;;;;;;;;;;;;;;;;;5070391;28;1231;-75
2022/11/24 07:16:19;;;;;;;;;;;;;;;;;;5070451;28;1918;-74
2022/11/24 07:18:46;;;;;;;;;;;;;;;;;;5071750;28;1357;-75
2022/11/24 07:21:13;;;;;;;;;;;;;;;;;;5077230;28;1191;-73
2022/11/24 07:23:39;;;;;;;;;;;;;;;;;;5078438;28;1091;-75
2022/11/24 07:26:06;;;;;;;;;;;;;;;;;;5079380;28;1116;-73
2022/11/24 07:28:33;;;;;;;;;;;;;;;;;;5078286;28;1310;-75
2022/11/24 07:30:59;;;;;;;;;;;;;;;;;;5078087;28;769;-75
2022/11/24 07:33:25;;;;;;;;;;;;;;;;;;5077696;28;869;-74
2022/11/24 07:35:53;;;;;;;;;;;;;;;;;;5078289;28;1973;-74
2022/11/24 07:38:19;;;;;;;;;;;;;;;;;;5076906;28;1321;-75
2022/11/24 07:40:46;;;;;;;;;;;;;;;;;;5078466;28;801;-75
2022/11/24 07:43:12;;;;;;;;;;;;;;;;;;5076383;28;774;-75
2022/11/24 07:45:38;;;;;;;;;;;;;;;;;;5076969;28;1106;-74
2022/11/24 07:48:05;;;;;;;;;;;;;;;;;;5076478;28;1324;-74
2022/11/24 07:50:31;;;;;;;;;;;;;;;;;;5075777;28;997;-73
2022/11/24 07:53:02;;;;;;;;;;;;;;;;;;5070707;28;1155;-74
2022/11/24 07:55:28;;;;;;;;;;;;;;;;;;5075129;28;1985;-75
2022/11/24 07:57:54;;;;;;;;;;;;;;;;;;5076018;28;1126;-75
2022/11/24 08:00:20;;;;;;;;;;;;;;;;;;5076130;28;802;-74
2022/11/24 08:02:47;;;;;;;;;;;;;;;;;;5075620;28;790;-74
2022/11/24 08:05:13;;;;;;;;;;;;;;;;;;5075846;28;1102;-74
2022/11/24 08:07:39;;;;;;;;;;;;;;;;;;5076281;28;1068;-75
2022/11/24 08:10:08;;;;;;;;;;;;;;;;;;5076423;28;1406;-75
2022/11/24 08:12:34;;;;;;;;;;;;;;;;;;5074584;28;1240;-75
2022/11/24 08:15:00;;;;;;;;;;;;;;;;;;5076425;28;1922;-75
2022/11/24 08:17:27;;;;;;;;;;;;;;;;;;5074471;28;1259;-75
2022/11/24 08:19:54;;;;;;;;;;;;;;;;;;5074860;28;1380;-75
2022/11/24 08:22:20;;;;;;;;;;;;;;;;;;5075506;28;1060;-75
2022/11/24 08:24:47;;;;;;;;;;;;;;;;;;5076021;28;1031;-75
2022/11/24 08:27:15;;;;;;;;;;;;;;;;;;5075797;28;1035;-73
2022/11/24 08:29:41;;;;;;;;;;;;;;;;;;5076140;28;1384;-75
2022/11/24 08:32:08;;;;;;;;;;;;;;;;;;5070192;28;1269;-75
2022/11/24 08:34:34;;;;;;;;;;;;;;;;;;5071509;28;2001;-74
2022/11/24 08:37:01;;;;;;;;;;;;;;;;;;5073071;28;1098;-75
2022/11/24 08:39:27;;;;;;;;;;;;;;;;;;5072446;28;1537;-75
2022/11/24 08:41:53;;;;;;;;;;;;;;;;;;5072058;28;1103;-75
2022/11/24 08:44:21;;;;;;;;;;;;;;;;;;5071451;28;1174;-75
2022/11/24 08:46:47;;;;;;;;;;;;;;;;;;5072882;28;818;-75
2022/11/24 08:49:13;;;;;;;;;;;;;;;;;;5071378;28;1369;-74
2022/11/24 08:51:40;;;;;;;;;;;;;;;;;;5072528;28;1115;-72
2022/11/24 08:54:06;;;;;;;;;;;;;;;;;;5072430;28;1122;-75
2022/11/24 08:56:32;;;;;;;;;;;;;;;;;;5072384;28;1917;-76
2022/11/24 08:58:59;;;;;;;;;;;;;;;;;;5071280;28;1316;-74
2022/11/24 09:01:27;;;;;;;;;;;;;;;;;;5070283;28;1224;-74
2022/11/24 09:03:53;;;;;;;;;;;;;;;;;;5070844;28;1167;-74
2022/11/24 09:06:21;;;;;;;;;;;;;;;;;;5072252;28;1068;-75
2022/11/24 09:08:47;;;;;;;;;;;;;;;;;;5072919;28;1328;-75
2022/11/24 09:11:14;;;;;;;;;;;;;;;;;;5073619;28;1138;-73
2022/11/24 09:13:40;;;;;;;;;;;;;;;;;;5072349;28;1214;-74
2022/11/24 09:16:08;;;;;;;;;;;;;;;;;;5073768;28;1977;-74
2022/11/24 09:18:35;;;;;;;;;;;;;;;;;;5073422;28;1388;-76
2022/11/24 09:21:07;;;;;;;;;;;;;;;;;;5074028;28;1051;-75
2022/11/24 09:23:34;;;;;;;;;;;;;;;;;;5072793;28;1118;-75
2022/11/24 09:26:02;;;;;;;;;;;;;;;;;;5073275;28;1063;-76
2022/11/24 09:28:28;;;;;;;;;;;;;;;;;;5073021;28;1286;-74
2022/11/24 09:30:55;;;;;;;;;;;;;;;;;;5072117;28;1275;-76
2022/11/24 09:33:21;;;;;;;;;;;;;;;;;;5072444;28;1007;-75
2022/11/24 09:35:50;;;;;;;;;;;;;;;;;;5073285;28;1965;-75
2022/11/24 09:38:16;;;;;;;;;;;;;;;;;;5072793;28;1302;-76
2022/11/24 09:40:42;;;;;;;;;;;;;;;;;;5073051;28;1129;-75
2022/11/24 09:43:11;;;;;;;;;;;;;;;;;;5072301;28;1042;-75
2022/11/24 09:45:40;;;;;;;;;;;;;;;;;;5073090;28;1035;-76
2022/11/24 09:48:08;;;;;;;;;;;;;;;;;;5072959;28;1326;-75
2022/11/24 09:50:35;;;;;;;;;;;;;;;;;;5073372;28;826;-75
2022/11/24 09:53:05;;;;;;;;;;;;;;;;;;5072230;28;1027;-75
2022/11/24 09:55:33;;;;;;;;;;;;;;;;;;5073019;28;1907;-76
2022/11/24 09:58:12;;;;;;;;;;;;;;;;;;5072591;28;1418;-74
2022/11/24 10:00:39;;;;;;;;;;;;;;;;;;5073196;28;949;-76
2022/11/24 10:03:05;;;;;;;;;;;;;;;;;;5070842;28;1362;-74
2022/11/24 10:05:33;;;;;;;;;;;;;;;;;;5071339;28;1226;-76
2022/11/24 10:08:06;;;;;;;;;;;;;;;;;;5071635;28;1310;-75
2022/11/24 10:10:34;;;;;;;;;;;;;;;;;;5072629;28;1063;-75
2022/11/24 10:13:01;;;;;;;;;;;;;;;;;;5071797;28;1012;-76
2022/11/24 10:15:31;;;;;;;;;;;;;;;;;;5072189;28;1910;-76
2022/11/24 10:18:01;;;;;;;;;;;;;;;;;;5070887;28;1391;-75
2022/11/24 10:20:28;;;;;;;;;;;;;;;;;;5072357;28;1062;-76
2022/11/24 10:22:58;;;;;;;;;;;;;;;;;;5071488;28;1047;-74
2022/11/24 10:25:26;;;;;;;;;;;;;;;;;;5071790;28;1478;-75
2022/11/24 10:27:55;;;;;;;;;;;;;;;;;;5072073;28;973;-76
2022/11/24 10:30:22;;;;;;;;;;;;;;;;;;5071943;28;1341;-75
2022/11/24 10:32:49;;;;;;;;;;;;;;;;;;5071553;28;1071;-77
2022/11/24 10:35:17;;;;;;;;;;;;;;;;;;5071943;28;1914;-76
2022/11/24 10:37:45;;;;;;;;;;;;;;;;;;5070747;28;1205;-76
2022/11/24 10:40:12;;;;;;;;;;;;;;;;;;5071819;28;1322;-75
2022/11/24 10:42:41;;;;;;;;;;;;;;;;;;5071982;28;1127;-76
2022/11/24 10:45:10;;;;;;;;;;;;;;;;;;5071879;28;1317;-77
2022/11/24 10:47:36;;;;;;;;;;;;;;;;;;5081246;28;826;-76
2022/11/24 10:50:03;;;;;;;;;;;;;;;;;;5082069;28;1380;-76
2022/11/24 10:52:30;;;;;;;;;;;;;;;;;;5074444;28;1323;-76
2022/11/24 10:54:57;;;;;;;;;;;;;;;;;;5071843;28;1071;-76
2022/11/24 10:57:30;;;;;;;;;;;;;;;;;;5071366;28;1914;-76
2022/11/24 10:59:57;;;;;;;;;;;;;;;;;;5071683;28;1304;-76
2022/11/24 11:02:28;;;;;;;;;;;;;;;;;;5071261;28;913;-75
2022/11/24 11:04:55;;;;;;;;;;;;;;;;;;5069178;28;2005;-77
2022/11/24 11:07:22;;;;;;;;;;;;;;;;;;5070040;28;1370;-76
2022/11/24 11:09:48;;;;;;;;;;;;;;;;;;5070434;28;1313;-75
2022/11/24 11:12:19;;;;;;;;;;;;;;;;;;5070940;28;1059;-76
2022/11/24 11:14:47;;;;;;;;;;;;;;;;;;5071868;28;992;-76
2022/11/24 11:17:34;;;;;;;;;;;;;;;;;;5071373;28;1973;-76
2022/11/24 11:20:04;;;;;;;;;;;;;;;;;;5071282;28;1312;-76
2022/11/24 11:22:31;;;;;;;;;;;;;;;;;;5069329;28;1188;-75
2022/11/24 11:25:02;;;;;;;;;;;;;;;;;;5071491;28;1114;-76
2022/11/24 11:27:28;;;;;;;;;;;;;;;;;;5071233;28;1059;-77
2022/11/24 11:29:54;;;;;;;;;;;;;;;;;;5071496;28;1250;-75
2022/11/24 11:32:22;;;;;;;;;;;;;;;;;;5069687;28;1166;-77
2022/11/24 11:34:50;;;;;;;;;;;;;;;;;;5071558;28;1110;-76
2022/11/24 11:37:16;;;;;;;;;;;;;;;;;;5069984;28;1951;-76
2022/11/24 11:39:43;;;;;;;;;;;;;;;;;;5071265;28;1304;-75
2022/11/24 11:42:14;;;;;;;;;;;;;;;;;;5069081;28;1248;-77
2022/11/24 11:44:41;;;;;;;;;;;;;;;;;;5071665;28;834;-76
2022/11/24 11:47:18;;;;;;;;;;;;;;;;;;5071000;28;1108;-74
2022/11/24 11:49:44;;;;;;;;;;;;;;;;;;5069831;28;1379;-76
2022/11/24 11:52:23;;;;;;;;;;;;;;;;;;5070934;28;977;-76
2022/11/24 11:54:54;;;;;;;;;;;;;;;;;;5084462;22;3804;-78
2022/11/24 11:57:22;;;;;;;;;;;;;;;;;;5077362;28;1984;-75
2022/11/24 11:59:53;;;;;;;;;;;;;;;;;;5064702;28;1120;-77
2022/11/24 12:02:38;;;;;;;;;;;;;;;;;;5086415;28;1363;-77
2022/11/24 12:05:05;;;;;;;;;;;;;;;;;;5071623;28;1413;-77
2022/11/24 12:07:50;;;;;;;;;;;;;;;;;;5073158;28;968;-78
2022/11/24 12:10:19;;;;;;;;;;;;;;;;;;5073921;28;988;-77
2022/11/24 12:12:51;;;;;;;;;;;;;;;;;;5074339;28;1059;-77
2022/11/24 12:15:19;;;;;;;;;;;;;;;;;;5074824;28;1420;-76
2022/11/24 12:17:46;;;;;;;;;;;;;;;;;;5074864;28;1981;-77
2022/11/24 12:20:19;;;;;;;;;;;;;;;;;;5077664;28;1479;-79
2022/11/24 12:22:46;;;;;;;;;;;;;;;;;;5094126;28;973;-77
2022/11/24 12:25:17;;;;;;;;;;;;;;;;;;5093536;28;1369;-78
2022/11/24 12:27:46;;;;;;;;;;;;;;;;;;5093660;28;1119;-78
2022/11/24 12:30:12;;;;;;;;;;;;;;;;;;5095160;28;822;-77
2022/11/24 12:32:59;;;;;;;;;;;;;;;;;;5094481;28;667;-77
2022/11/24 12:35:26;;;;;;;;;;;;;;;;;;5093483;28;937;-78
2022/11/24 12:37:55;;;;;;;;;;;;;;;;;;5094070;28;1979;-77
2022/11/24 12:40:26;;;;;;;;;;;;;;;;;;5094289;28;1067;-78
2022/11/24 12:42:54;;;;;;;;;;;;;;;;;;5094143;28;1380;-77
2022/11/24 12:45:22;;;;;;;;;;;;;;;;;;5105541;28;1059;-77
2022/11/24 12:47:55;;;;;;;;;;;;;;;;;;5110135;28;1099;-78
2022/11/24 12:50:22;;;;;;;;;;;;;;;;;;5070233;28;1101;-77
2022/11/24 12:52:50;;;;;;;;;;;;;;;;;;5063054;28;1136;-78
2022/11/24 12:55:17;;;;;;;;;;;;;;;;;;5073323;28;1322;-76
2022/11/24 12:57:46;;;;;;;;;;;;;;;;;;5075703;28;1979;-78
2022/11/24 13:00:15;;;;;;;;;;;;;;;;;;5076139;28;1060;-80
2022/11/24 13:02:45;;;;;;;;;;;;;;;;;;5074873;28;1080;-77
2022/11/24 13:05:13;;;;;;;;;;;;;;;;;;5074538;28;1317;-78
2022/11/24 13:07:44;;;;;;;;;;;;;;;;;;5074780;28;1059;-77
2022/11/24 13:10:27;;;;;;;;;;;;;;;;;;5074410;28;1094;-78
2022/11/24 13:12:55;;;;;;;;;;;;;;;;;;5073328;28;1059;-79
2022/11/24 13:15:21;;;;;;;;;;;;;;;;;;5071867;28;1379;-78
2022/11/24 13:17:48;;;;;;;;;;;;;;;;;;5072979;28;1979;-77
2022/11/24 13:20:14;;;;;;;;;;;;;;;;;;5073605;28;758;-77
2022/11/24 13:22:46;;;;;;;;;;;;;;;;;;5073043;28;932;-78
2022/11/24 13:25:13;;;;;;;;;;;;;;;;;;5072012;28;1509;-78
2022/11/24 13:27:40;;;;;;;;;;;;;;;;;;5073628;28;1056;-78
2022/11/24 13:30:25;;;;;;;;;;;;;;;;;;5073498;28;1010;-77
2022/11/24 13:33:02;;;;;;;;;;;;;;;;;;5072370;28;1119;-78
2022/11/24 13:35:29;;;;;;;;;;;;;;;;;;5073027;28;881;-78
2022/11/24 13:37:55;;;;;;;;;;;;;;;;;;5073281;28;1977;-78
2022/11/24 13:40:39;;;;;;;;;;;;;;;;;;5073173;28;806;-78
2022/11/24 13:43:21;;;;;;;;;;;;;;;;;;5072582;28;1348;-78
2022/11/24 13:45:48;;;;;;;;;;;;;;;;;;5073153;28;1099;-77
2022/11/24 13:48:29;;;;;;;;;;;;;;;;;;5072886;28;1246;-77
2022/11/24 13:51:13;;;;;;;;;;;;;;;;;;5071164;28;1270;-77
2022/11/24 13:53:41;;;;;;;;;;;;;;;;;;5071379;28;1315;-77
2022/11/24 13:56:08;;;;;;;;;;;;;;;;;;5055306;28;1971;-78
2022/11/24 13:58:36;;;;;;;;;;;;;;;;;;5057199;28;916;-77
2022/11/24 14:01:03;;;;;;;;;;;;;;;;;;5051426;28;1212;-77
2022/11/24 14:03:31;;;;;;;;;;;;;;;;;;5050548;28;1302;-77
2022/11/24 14:05:57;;;;;;;;;;;;;;;;;;5052274;28;1151;-76
2022/11/24 14:08:25;;;;;;;;;;;;;;;;;;5052888;28;1210;-78
2022/11/24 14:10:51;;;;;;;;;;;;;;;;;;5052885;28;1044;-78
2022/11/24 14:13:22;;;;;;;;;;;;;;;;;;5053010;28;1318;-78
2022/11/24 14:15:58;;;;;;;;;;;;;;;;;;5055947;28;918;-78
2022/11/24 14:18:24;;;;;;;;;;;;;;;;;;5055222;28;2010;-79
2022/11/24 14:20:50;;;;;;;;;;;;;;;;;;5057867;28;854;-79
2022/11/24 14:23:16;;;;;;;;;;;;;;;;;;5056407;28;1361;-78
2022/11/24 14:25:47;;;;;;;;;;;;;;;;;;5067552;28;1515;-79
2022/11/24 14:28:13;;;;;;;;;;;;;;;;;;5077304;28;920;-79
2022/11/24 14:30:39;;;;;;;;;;;;;;;;;;5075818;28;1127;-78
2022/11/24 14:33:09;;;;;;;;;;;;;;;;;;5075758;28;1385;-79
2022/11/24 14:35:36;;;;;;;;;;;;;;;;;;5074287;28;1241;-78
2022/11/24 14:38:03;;;;;;;;;;;;;;;;;;5073052;28;1917;-78
2022/11/24 14:40:39;;;;;;;;;;;;;;;;;;5072893;28;1541;-78
2022/11/24 14:43:15;;;;;;;;;;;;;;;;;;5071510;28;1385;-78
2022/11/24 14:45:47;;;;;;;;;;;;;;;;;;5073216;28;1282;-78
2022/11/24 14:48:14;;;;;;;;;;;;;;;;;;5075039;28;1119;-78
2022/11/24 14:50:40;;;;;;;;;;;;;;;;;;5074119;28;1244;-79
2022/11/24 14:53:06;;;;;;;;;;;;;;;;;;5074503;28;1380;-78
2022/11/24 14:55:34;;;;;;;;;;;;;;;;;;5073632;28;1339;-78
2022/11/24 14:58:00;;;;;;;;;;;;;;;;;;5072684;28;1910;-78
2022/11/24 15:00:28;;;;;;;;;;;;;;;;;;5085864;28;1012;-79
2022/11/24 15:02:55;;;;;;;;;;;;;;;;;;5090930;28;1309;-78
2022/11/24 15:05:22;;;;;;;;;;;;;;;;;;5082872;28;1084;-79
2022/11/24 15:07:48;;;;;;;;;;;;;;;;;;5077991;28;751;-78
2022/11/24 15:10:18;;;;;;;;;;;;;;;;;;5075733;28;1231;-78
2022/11/24 15:12:48;;;;;;;;;;;;;;;;;;5077460;28;1016;-78
2022/11/24 15:15:16;;;;;;;;;;;;;;;;;;5084882;28;1360;-77
2022/11/24 15:17:46;;;;;;;;;;;;;;;;;;5087958;28;1886;-78
2022/11/24 15:20:16;;;;;;;;;;;;;;;;;;5080443;28;1120;-76
2022/11/24 15:22:43;;;;;;;;;;;;;;;;;;5074314;28;809;-79
2022/11/24 15:25:32;;;;;;;;;;;;;;;;;;5073897;28;1356;-79
2022/11/24 15:27:58;;;;;;;;;;;;;;;;;;5074092;28;1055;-78
2022/11/24 15:30:25;;;;;;;;;;;;;;;;;;5074188;28;980;-78
2022/11/24 15:32:53;;;;;;;;;;;;;;;;;;5072252;28;1052;-78
2022/11/24 15:35:20;;;;;;;;;;;;;;;;;;5073785;28;1321;-78
2022/11/24 15:37:46;;;;;;;;;;;;;;;;;;5079710;28;1914;-78
2022/11/24 15:40:13;;;;;;;;;;;;;;;;;;5081855;28;1012;-78
2022/11/24 15:42:39;;;;;;;;;;;;;;;;;;5082899;28;770;-78
2022/11/24 15:45:06;;;;;;;;;;;;;;;;;;5079077;28;1333;-77
2022/11/24 15:47:32;;;;;;;;;;;;;;;;;;5080234;28;1044;-79
2022/11/24 15:49:59;;;;;;;;;;;;;;;;;;5079455;28;1064;-78
2022/11/24 15:52:26;;;;;;;;;;;;;;;;;;5078007;28;1047;-79
2022/11/24 15:54:52;;;;;;;;;;;;;;;;;;5079593;28;1306;-78
2022/11/24 15:57:18;;;;;;;;;;;;;;;;;;5079065;28;1965;-79
2022/11/24 15:59:45;;;;;;;;;;;;;;;;;;5081000;28;1071;-79
2022/11/24 16:02:11;;;;;;;;;;;;;;;;;;5079127;28;1028;-78
2022/11/24 16:04:40;;;;;;;;;;;;;;;;;;5085166;28;1265;-77
2022/11/24 16:07:08;;;;;;;;;;;;;;;;;;5084555;28;1161;-78
2022/11/24 16:09:35;;;;;;;;;;;;;;;;;;5084719;28;1144;-78
2022/11/24 16:12:02;;;;;;;;;;;;;;;;;;5086748;28;1315;-78
2022/11/24 16:14:28;;;;;;;;;;;;;;;;;;5088513;28;1355;-78
2022/11/24 16:16:55;;;;;;;;;;;;;;;;;;5078788;28;1975;-79
2022/11/24 16:19:21;;;;;;;;;;;;;;;;;;5078694;28;1008;-78
2022/11/24 16:21:47;;;;;;;;;;;;;;;;;;5076303;28;905;-77
2022/11/24 16:24:15;;;;;;;;;;;;;;;;;;5073561;28;2420;-78
2022/11/24 16:26:41;;;;;;;;;;;;;;;;;;5074566;28;1175;-77
2022/11/24 16:29:07;;;;;;;;;;;;;;;;;;5070770;28;1175;-78
2022/11/24 16:31:33;;;;;;;;;;;;;;;;;;5063844;28;1493;-78
2022/11/24 16:33:59;;;;;;;;;;;;;;;;;;5078057;28;1459;-78
2022/11/24 16:36:27;;;;;;;;;;;;;;;;;;5074134;28;1302;-78
2022/11/24 16:38:53;;;;;;;;;;;;;;;;;;5074296;28;1956;-78
2022/11/24 16:41:21;;;;;;;;;;;;;;;;;;5074637;28;758;-78
2022/11/24 16:43:47;;;;;;;;;;;;;;;;;;5075311;28;1304;-78
2022/11/24 16:46:17;;;;;;;;;;;;;;;;;;5075749;28;857;-78
2022/11/24 16:48:43;;;;;;;;;;;;;;;;;;5072441;28;1586;-77
2022/11/24 16:51:10;;;;;;;;;;;;;;;;;;5072541;28;1099;-78
2022/11/24 16:53:36;;;;;;;;;;;;;;;;;;5071897;28;1394;-78
2022/11/24 16:56:02;;;;;;;;;;;;;;;;;;5073807;28;865;-78
2022/11/24 16:58:30;;;;;;;;;;;;;;;;;;5072505;28;1902;-78
2022/11/24 17:01:01;;;;;;;;;;;;;;;;;;5072479;28;1287;-78
2022/11/24 17:03:31;;;;;;;;;;;;;;;;;;5073168;28;1426;-77
2022/11/24 17:05:57;;;;;;;;;;;;;;;;;;5071362;28;1228;-77
2022/11/24 17:08:24;;;;;;;;;;;;;;;;;;5073903;28;1114;-78
2022/11/24 17:10:50;;;;;;;;;;;;;;;;;;5072681;28;1492;-77